This is the latest recevied weather packets stored in our database for station/object JE7UPL-13. If no packets are shown the sender has not sent any weather packets the latest 10 day(s).
| Time | Temp. | Humidity | Pressure | Rain* | Wind** | Luminosity | Snow |
|---|---|---|---|---|---|---|---|
| 1777949105 | 17.78° C | 38% | 1011.4 hPa | 0 mm | - | - | - |
| 1777948206 | 18.33° C | 38% | 1011.7 hPa | 0 mm | - | - | - |
| 1777947305 | 17.78° C | 39% | 1011.8 hPa | 0 mm | - | - | - |
| 1777946406 | 17.22° C | 41% | 1011.9 hPa | 0 mm | - | - | - |
| 1777945505 | 16.67° C | 45% | 1011.8 hPa | 0 mm | - | - | - |
| 1777944605 | 16.11° C | 50% | 1012.6 hPa | 0 mm | - | - | - |
| 1777943705 | 15° C | 50% | 1012.6 hPa | 0 mm | - | - | - |
| 1777942806 | 15° C | 50% | 1012.9 hPa | 0 mm | - | - | - |
| 1777941905 | 13.89° C | 51% | 1012.8 hPa | 0 mm | - | - | - |
| 1777941005 | 13.33° C | 52% | 1013.3 hPa | 0 mm | - | - | - |
| 1777940105 | 13.89° C | 52% | 1013 hPa | 0 mm | - | - | - |
| 1777939206 | 12.78° C | 53% | 1013.3 hPa | 0 mm | - | - | - |
| 1777938306 | 12.78° C | 53% | 1012.9 hPa | 0 mm | - | - | - |
| 1777937406 | 12.22° C | 55% | 1012.8 hPa | 0 mm | - | - | - |
| 1777936505 | 12.22° C | 53% | 1013 hPa | 0 mm | - | - | - |
| 1777935605 | 12.22° C | 52% | 1012.8 hPa | 0 mm | - | - | - |
| 1777934706 | 11.67° C | 54% | 1012.4 hPa | 0 mm | - | - | - |
| 1777933805 | 11.67° C | 59% | 1012.4 hPa | 0 mm | - | - | - |
| 1777932905 | 11.67° C | 62% | 1012.5 hPa | 0 mm | - | - | - |
| 1777932006 | 10.56° C | 65% | 1012.2 hPa | 0 mm | - | - | - |
| 1777931105 | 10° C | 70% | 1012.3 hPa | 0 mm | - | - | - |
| 1777930205 | 8.89° C | 73% | 1011.9 hPa | 0 mm | - | - | - |
| 1777929305 | 8.89° C | 74% | 1011.9 hPa | 0 mm | - | - | - |
| 1777928406 | 8.89° C | 71% | 1011.7 hPa | 0 mm | - | - | - |
| 1777927505 | 10.56° C | 66% | 1011.6 hPa | 0 mm | - | - | - |
* Rain latest hour (hover to see other rain measurements)
** Current wind speed in m/s (hover to see current wind gust speed)